createdAt,value
2022-10-03T00:00:21.521Z,0.00
2022-10-03T00:01:21.606Z,0.00
2022-10-03T00:02:21.503Z,0.00
2022-10-03T00:03:21.493Z,0.00
2022-10-03T00:04:21.487Z,0.00
2022-10-03T00:05:21.482Z,0.00
2022-10-03T00:06:21.502Z,0.00
2022-10-03T00:07:21.459Z,0.00
2022-10-03T00:08:21.457Z,0.00
2022-10-03T00:09:21.449Z,0.00
2022-10-03T00:10:21.436Z,0.00
2022-10-03T00:11:21.454Z,0.00
2022-10-03T00:12:21.423Z,0.00
2022-10-03T00:13:21.419Z,0.00
2022-10-03T00:14:21.405Z,0.00
2022-10-03T00:15:21.396Z,0.00
2022-10-03T00:16:21.457Z,0.00
2022-10-03T00:17:22.381Z,0.00
2022-10-03T00:18:21.373Z,0.00
2022-10-03T00:19:21.379Z,0.00
2022-10-03T00:20:21.367Z,0.00
2022-10-03T00:21:21.378Z,0.00
2022-10-03T00:22:21.351Z,0.00
2022-10-03T00:23:21.339Z,0.00
2022-10-03T00:24:21.348Z,0.00
2022-10-03T00:25:21.347Z,0.00
2022-10-03T00:26:21.314Z,0.00
2022-10-03T00:27:21.305Z,0.00
2022-10-03T00:28:21.387Z,0.00
2022-10-03T00:29:21.297Z,0.00
2022-10-03T00:30:21.309Z,0.00
2022-10-03T00:31:21.356Z,0.00
2022-10-03T00:32:21.262Z,0.00
2022-10-03T00:33:21.259Z,0.00
2022-10-03T00:34:21.250Z,0.00
2022-10-03T00:35:21.264Z,0.00
2022-10-03T00:36:21.240Z,0.00
2022-10-03T00:37:21.226Z,0.00
2022-10-03T00:38:21.225Z,0.00
2022-10-03T00:39:21.209Z,0.00
2022-10-03T00:40:21.228Z,0.00
2022-10-03T00:41:21.195Z,0.00
2022-10-03T00:42:21.191Z,0.00
2022-10-03T00:43:21.177Z,0.00
2022-10-03T00:44:21.169Z,0.00
2022-10-03T00:45:21.195Z,0.00
2022-10-03T00:46:21.188Z,0.00
2022-10-03T00:47:21.202Z,0.00
2022-10-03T00:48:21.168Z,0.00
2022-10-03T00:49:21.138Z,0.00
2022-10-03T00:50:21.160Z,0.00
2022-10-03T00:51:21.118Z,0.00
2022-10-03T00:52:21.112Z,0.00
2022-10-03T00:53:21.107Z,0.00
2022-10-03T00:54:21.097Z,0.00
2022-10-03T00:55:21.088Z,0.00
2022-10-03T00:56:21.110Z,0.00
2022-10-03T00:57:21.079Z,0.00
2022-10-03T00:58:21.072Z,0.00
2022-10-03T00:59:21.066Z,0.00
2022-10-03T01:00:21.063Z,0.00
2022-10-03T01:01:21.165Z,0.00
2022-10-03T01:02:21.126Z,0.00
2022-10-03T01:03:21.034Z,0.00
2022-10-03T01:04:21.019Z,0.00
2022-10-03T01:05:21.011Z,0.00
2022-10-03T01:06:21.034Z,0.00
2022-10-03T01:07:20.998Z,0.00
2022-10-03T01:08:20.989Z,0.00
2022-10-03T01:09:20.986Z,0.00
2022-10-03T01:10:20.977Z,0.00
2022-10-03T01:11:20.993Z,0.00
2022-10-03T01:12:20.954Z,0.00
2022-10-03T01:13:20.947Z,0.00
2022-10-03T01:14:20.943Z,0.00
2022-10-03T01:15:20.944Z,0.00
2022-10-03T01:16:21.051Z,0.00
2022-10-03T01:17:20.924Z,0.00
2022-10-03T01:18:20.916Z,0.00
2022-10-03T01:19:20.908Z,0.00
2022-10-03T01:20:20.901Z,0.00
2022-10-03T01:21:20.926Z,0.00
2022-10-03T01:22:20.879Z,0.00
2022-10-03T01:23:20.875Z,0.00
2022-10-03T01:24:20.871Z,0.00
2022-10-03T01:25:20.871Z,0.00
2022-10-03T01:26:20.884Z,0.00
2022-10-03T01:27:20.851Z,0.00
2022-10-03T01:28:20.906Z,0.00
2022-10-03T01:29:20.834Z,0.00
2022-10-03T01:30:20.823Z,0.00
2022-10-03T01:31:20.869Z,0.00
2022-10-03T01:32:20.820Z,0.00
2022-10-03T01:33:20.810Z,0.00
2022-10-03T01:34:20.796Z,0.00
2022-10-03T01:35:20.789Z,0.00
2022-10-03T01:36:20.800Z,0.00
2022-10-03T01:37:20.786Z,0.00
2022-10-03T01:38:20.787Z,0.00
2022-10-03T01:39:20.753Z,0.00
2022-10-03T01:40:20.752Z,0.00
2022-10-03T01:41:20.766Z,0.00
2022-10-03T01:42:20.742Z,0.00
2022-10-03T01:43:20.733Z,0.00
2022-10-03T01:44:20.718Z,0.00
2022-10-03T01:45:20.708Z,0.00
2022-10-03T01:46:20.790Z,0.00
2022-10-03T01:47:20.692Z,0.00
2022-10-03T01:48:20.684Z,0.00
2022-10-03T01:49:20.677Z,0.00
2022-10-03T01:50:20.707Z,0.00
2022-10-03T01:51:20.664Z,0.00
2022-10-03T01:52:20.656Z,0.00
2022-10-03T01:53:20.645Z,0.00
2022-10-03T01:54:20.649Z,0.00
2022-10-03T01:55:20.660Z,0.00
2022-10-03T01:56:20.629Z,0.00
2022-10-03T01:57:20.617Z,0.00
2022-10-03T01:58:20.616Z,0.00
2022-10-03T01:59:20.608Z,0.00
2022-10-03T02:00:20.672Z,0.00
2022-10-03T02:01:20.678Z,0.00
2022-10-03T02:02:20.598Z,0.00
2022-10-03T02:03:20.581Z,0.00
2022-10-03T02:04:20.570Z,0.00
2022-10-03T02:05:20.589Z,0.00
2022-10-03T02:06:20.563Z,0.00
2022-10-03T02:07:20.545Z,0.00
2022-10-03T02:08:20.542Z,0.00
2022-10-03T02:09:20.568Z,0.00
2022-10-03T02:10:20.525Z,0.00
2022-10-03T02:11:20.517Z,0.00
2022-10-03T02:12:20.511Z,0.00
2022-10-03T02:13:20.500Z,0.00
2022-10-03T02:14:20.524Z,0.00
2022-10-03T02:15:20.492Z,0.00
2022-10-03T02:16:20.523Z,0.00
2022-10-03T02:17:20.474Z,0.00
2022-10-03T02:18:20.460Z,0.00
2022-10-03T02:19:20.504Z,0.00
2022-10-03T02:20:20.458Z,0.00
2022-10-03T02:21:20.443Z,0.00
2022-10-03T02:22:20.460Z,0.00
2022-10-03T02:23:20.422Z,0.00
2022-10-03T02:24:20.416Z,0.00
2022-10-03T02:25:20.433Z,0.00
2022-10-03T02:26:20.403Z,0.00
2022-10-03T02:27:20.395Z,0.00
2022-10-03T02:28:20.504Z,0.00
2022-10-03T02:29:20.377Z,0.00
2022-10-03T02:30:20.395Z,0.00
2022-10-03T02:31:20.397Z,0.00
2022-10-03T02:32:20.354Z,0.00
2022-10-03T02:33:20.344Z,0.00
2022-10-03T02:34:20.343Z,0.00
2022-10-03T02:35:20.357Z,0.00
2022-10-03T02:36:20.324Z,0.00
2022-10-03T02:37:20.319Z,0.00
2022-10-03T02:38:20.302Z,0.00
2022-10-03T02:39:20.306Z,0.00
2022-10-03T02:40:20.315Z,0.00
2022-10-03T02:41:20.284Z,0.00
2022-10-03T02:42:20.269Z,0.00
2022-10-03T02:43:20.267Z,0.00
2022-10-03T02:44:20.262Z,0.00
2022-10-03T02:45:20.336Z,0.00
2022-10-03T02:46:20.254Z,0.00
2022-10-03T02:47:20.237Z,0.00
2022-10-03T02:48:31.384Z,0.00
2022-10-03T02:49:22.221Z,0.00
2022-10-03T02:50:20.245Z,0.00
2022-10-03T02:51:20.208Z,0.00
2022-10-03T02:52:20.204Z,0.00
2022-10-03T02:53:20.207Z,0.00
2022-10-03T02:54:20.206Z,0.00
2022-10-03T02:55:20.210Z,0.00
2022-10-03T02:56:20.179Z,0.00
2022-10-03T02:57:20.160Z,0.00
2022-10-03T02:58:20.171Z,0.00
2022-10-03T02:59:20.149Z,0.00
2022-10-03T03:00:20.170Z,0.00
2022-10-03T03:01:20.196Z,0.00
2022-10-03T03:02:20.201Z,0.00
2022-10-03T03:03:20.126Z,0.00
2022-10-03T03:04:20.119Z,0.00
2022-10-03T03:05:20.144Z,0.00
2022-10-03T03:06:20.103Z,0.00
2022-10-03T03:07:20.108Z,0.00
2022-10-03T03:08:20.085Z,0.00
2022-10-03T03:09:20.081Z,0.00
2022-10-03T03:10:20.107Z,0.00
2022-10-03T03:11:20.069Z,0.00
2022-10-03T03:12:20.058Z,0.00
2022-10-03T03:13:20.048Z,0.00
2022-10-03T03:14:20.042Z,0.00
2022-10-03T03:15:20.037Z,0.00
2022-10-03T03:16:20.087Z,0.00
2022-10-03T03:17:21.017Z,0.00
2022-10-03T03:18:20.011Z,0.00
2022-10-03T03:19:20.005Z,0.00
2022-10-03T03:20:19.998Z,0.00
2022-10-03T03:21:20.020Z,0.00
2022-10-03T03:22:19.981Z,0.00
2022-10-03T03:23:19.977Z,0.00
2022-10-03T03:24:19.982Z,0.00
2022-10-03T03:25:19.950Z,0.00
2022-10-03T03:26:20.973Z,0.00
2022-10-03T03:27:19.950Z,0.00
2022-10-03T03:28:19.966Z,0.00
2022-10-03T03:29:19.928Z,0.00
2022-10-03T03:30:19.918Z,0.00
2022-10-03T03:31:19.976Z,0.00
2022-10-03T03:32:19.907Z,0.00
2022-10-03T03:33:19.910Z,0.00
2022-10-03T03:34:19.894Z,0.00
2022-10-03T03:35:19.885Z,0.00
2022-10-03T03:36:19.898Z,0.00
2022-10-03T03:37:19.880Z,0.00
2022-10-03T03:38:19.864Z,0.00
2022-10-03T03:39:19.853Z,0.00
2022-10-03T03:40:19.848Z,0.00
2022-10-03T03:41:19.879Z,0.00
2022-10-03T03:42:19.830Z,0.00
2022-10-03T03:43:19.834Z,0.00
2022-10-03T03:44:19.822Z,0.00
2022-10-03T03:45:19.944Z,0.00
2022-10-03T03:46:19.834Z,0.00
2022-10-03T03:47:19.799Z,0.00
2022-10-03T03:48:19.788Z,0.00
2022-10-03T03:49:19.797Z,0.00
2022-10-03T03:50:19.775Z,0.00
2022-10-03T03:51:19.799Z,0.00
2022-10-03T03:52:19.761Z,0.00
2022-10-03T03:53:19.753Z,0.00
2022-10-03T03:54:19.747Z,0.00
2022-10-03T03:55:19.739Z,0.00
2022-10-03T03:56:19.758Z,0.00
2022-10-03T03:57:52.438Z,0.00
2022-10-03T03:58:19.709Z,0.00
2022-10-03T03:59:19.701Z,0.00
2022-10-03T04:00:19.701Z,0.00
2022-10-03T04:01:19.796Z,0.00
2022-10-03T04:02:19.727Z,0.00
2022-10-03T04:03:19.684Z,0.00
2022-10-03T04:04:19.670Z,0.00
2022-10-03T04:05:19.658Z,0.00
2022-10-03T04:06:19.677Z,0.00
2022-10-03T04:07:21.817Z,0.00
2022-10-03T04:08:20.635Z,0.00
2022-10-03T04:09:19.624Z,0.00
2022-10-03T04:10:20.616Z,0.00
2022-10-03T04:11:19.645Z,0.00
2022-10-03T04:12:19.611Z,0.00
2022-10-03T04:13:19.600Z,0.00
2022-10-03T04:14:19.594Z,0.00
2022-10-03T04:15:19.589Z,0.00
2022-10-03T04:16:19.629Z,0.00
2022-10-03T04:17:19.576Z,0.00
2022-10-03T04:18:19.578Z,0.00
2022-10-03T04:19:19.563Z,0.00
2022-10-03T04:20:19.547Z,0.00
2022-10-03T04:21:19.571Z,0.00
2022-10-03T04:22:19.545Z,0.00
2022-10-03T04:23:19.533Z,0.00
2022-10-03T04:24:19.527Z,0.00
2022-10-03T04:25:19.519Z,0.00
2022-10-03T04:26:19.537Z,0.00
2022-10-03T04:27:19.500Z,0.00
2022-10-03T04:28:19.640Z,0.00
2022-10-03T04:29:19.492Z,0.00
2022-10-03T04:30:19.483Z,0.00
2022-10-03T04:31:19.559Z,0.00
2022-10-03T04:32:19.466Z,0.00
2022-10-03T04:33:19.459Z,0.00
2022-10-03T04:34:19.447Z,0.00
2022-10-03T04:35:19.441Z,0.00
2022-10-03T04:36:19.469Z,0.00
2022-10-03T04:37:19.422Z,0.00
2022-10-03T04:38:19.417Z,0.00
2022-10-03T04:39:19.417Z,0.00
2022-10-03T04:40:19.408Z,0.00
2022-10-03T04:41:19.446Z,0.00
2022-10-03T04:42:19.388Z,0.00
2022-10-03T04:43:19.387Z,0.00
2022-10-03T04:44:19.377Z,0.00
2022-10-03T04:45:19.373Z,0.00
2022-10-03T04:46:19.410Z,0.00
2022-10-03T04:47:19.381Z,0.00
2022-10-03T04:48:19.349Z,0.00
2022-10-03T04:49:19.349Z,0.00
2022-10-03T04:50:19.326Z,0.00
2022-10-03T04:51:19.337Z,0.00
2022-10-03T04:52:19.341Z,0.00
2022-10-03T04:53:19.341Z,0.00
2022-10-03T04:54:19.302Z,0.00
2022-10-03T04:55:19.302Z,0.00
2022-10-03T04:56:19.290Z,0.00
2022-10-03T04:57:19.287Z,0.00
2022-10-03T04:58:19.299Z,0.00
2022-10-03T04:59:19.267Z,0.00
2022-10-03T05:00:19.259Z,0.00
2022-10-03T05:01:19.267Z,4.00
2022-10-03T05:02:19.285Z,0.00
2022-10-03T05:03:19.271Z,0.00
2022-10-03T05:04:19.223Z,4.00
2022-10-03T05:05:19.233Z,0.00
2022-10-03T05:06:19.210Z,0.00
2022-10-03T05:07:19.212Z,4.00
2022-10-03T05:08:19.223Z,4.00
2022-10-03T05:09:19.196Z,4.00
2022-10-03T05:10:19.186Z,4.00
2022-10-03T05:11:19.180Z,4.00
2022-10-03T05:12:19.168Z,4.00
2022-10-03T05:13:19.194Z,4.00
2022-10-03T05:14:19.151Z,8.00
2022-10-03T05:15:19.148Z,8.00
2022-10-03T05:16:19.199Z,8.00
2022-10-03T05:17:19.130Z,12.00
2022-10-03T05:18:22.277Z,12.00
2022-10-03T05:19:20.114Z,16.00
2022-10-03T05:20:19.237Z,16.00
2022-10-03T05:21:19.116Z,12.00
2022-10-03T05:22:19.116Z,16.00
2022-10-03T05:23:19.184Z,20.00
2022-10-03T05:24:19.096Z,20.00
2022-10-03T05:25:19.125Z,20.00
2022-10-03T05:26:43.465Z,24.00
2022-10-03T05:27:21.081Z,28.00
2022-10-03T05:28:19.201Z,28.00
2022-10-03T05:29:19.125Z,32.00
2022-10-03T05:30:19.059Z,36.00
2022-10-03T05:31:19.093Z,28.00
2022-10-03T05:32:19.047Z,32.00
2022-10-03T05:33:19.061Z,32.00
2022-10-03T05:34:19.025Z,32.00
2022-10-03T05:35:19.031Z,36.00
2022-10-03T05:36:19.020Z,40.00
2022-10-03T05:37:19.003Z,36.00
2022-10-03T05:38:19.046Z,36.00
2022-10-03T05:39:19.054Z,40.00
2022-10-03T05:40:19.002Z,48.00
2022-10-03T05:41:22.678Z,56.00
2022-10-03T05:42:23.853Z,56.00
2022-10-03T05:43:20.251Z,64.00
2022-10-03T05:44:18.952Z,68.00
2022-10-03T05:45:18.914Z,72.00
2022-10-03T05:46:18.956Z,76.00
2022-10-03T05:47:18.926Z,80.00
2022-10-03T05:48:19.142Z,92.00
2022-10-03T05:49:18.898Z,96.00
2022-10-03T05:50:18.896Z,92.00
2022-10-03T05:51:18.889Z,100.00
2022-10-03T05:52:18.882Z,100.00
2022-10-03T05:53:18.988Z,104.00
2022-10-03T05:54:18.865Z,108.00
2022-10-03T05:55:19.857Z,112.00
2022-10-03T05:56:18.837Z,112.00
2022-10-03T05:57:18.844Z,112.00
2022-10-03T05:58:18.856Z,112.00
2022-10-03T05:59:18.854Z,120.00
2022-10-03T06:00:18.815Z,128.00
2022-10-03T06:01:18.830Z,140.00
2022-10-03T06:02:18.912Z,148.00
2022-10-03T06:03:18.850Z,148.00
2022-10-03T06:04:18.781Z,152.00
2022-10-03T06:05:18.769Z,156.00
2022-10-03T06:06:18.780Z,160.00
2022-10-03T06:07:18.784Z,168.00
2022-10-03T06:08:19.590Z,184.00
2022-10-03T06:09:18.725Z,176.00
2022-10-03T06:10:18.724Z,144.00
2022-10-03T06:11:18.824Z,136.00
2022-10-03T06:12:18.729Z,144.00
2022-10-03T06:13:18.703Z,152.00
2022-10-03T06:14:18.693Z,176.00
2022-10-03T06:15:18.700Z,196.00
2022-10-03T06:16:19.661Z,208.00
2022-10-03T06:17:18.668Z,212.00
2022-10-03T06:18:18.837Z,212.00
2022-10-03T06:19:18.682Z,216.00
2022-10-03T06:20:18.647Z,228.00
2022-10-03T06:21:18.632Z,244.00
2022-10-03T06:22:18.633Z,256.00
2022-10-03T06:23:18.653Z,260.00
2022-10-03T06:24:18.612Z,272.00
2022-10-03T06:25:18.613Z,284.00
2022-10-03T06:26:18.601Z,296.00
2022-10-03T06:27:18.695Z,312.00
2022-10-03T06:28:18.627Z,320.00
2022-10-03T06:29:18.586Z,328.00
2022-10-03T06:30:18.602Z,320.00
2022-10-03T06:31:18.617Z,308.00
2022-10-03T06:32:18.589Z,304.00
2022-10-03T06:33:18.559Z,300.00
2022-10-03T06:34:18.614Z,304.00
2022-10-03T06:35:18.533Z,300.00
2022-10-03T06:36:18.568Z,312.00
2022-10-03T06:37:18.590Z,312.00
2022-10-03T06:38:18.518Z,332.00
2022-10-03T06:39:18.502Z,336.00
2022-10-03T06:40:18.498Z,340.00
2022-10-03T06:41:18.492Z,320.00
2022-10-03T06:42:18.522Z,308.00
2022-10-03T06:43:18.522Z,300.00
2022-10-03T06:44:18.469Z,300.00
2022-10-03T06:45:18.456Z,304.00
2022-10-03T06:46:18.493Z,332.00
2022-10-03T06:47:18.438Z,352.00
2022-10-03T06:48:18.477Z,364.00
2022-10-03T06:49:18.469Z,376.00
2022-10-03T06:50:18.425Z,400.00
2022-10-03T06:51:18.634Z,412.00
2022-10-03T06:52:18.404Z,424.00
2022-10-03T06:53:18.421Z,440.00
2022-10-03T06:54:18.387Z,476.00
2022-10-03T06:55:18.374Z,492.00
2022-10-03T06:56:18.372Z,540.00
2022-10-03T06:57:18.367Z,572.00
2022-10-03T06:58:18.920Z,588.00
2022-10-03T06:59:18.347Z,628.00
2022-10-03T07:00:18.990Z,584.00
2022-10-03T07:01:18.419Z,556.00
2022-10-03T07:02:18.455Z,516.00
2022-10-03T07:03:18.321Z,500.00
2022-10-03T07:04:18.309Z,520.00
2022-10-03T07:05:18.426Z,544.00
2022-10-03T07:06:18.307Z,556.00
2022-10-03T07:07:18.642Z,568.00
2022-10-03T07:08:18.282Z,600.00
2022-10-03T07:09:18.386Z,648.00
2022-10-03T07:10:18.267Z,624.00
2022-10-03T07:11:18.263Z,572.00
2022-10-03T07:12:18.311Z,596.00
2022-10-03T07:13:18.246Z,640.00
2022-10-03T07:14:18.249Z,676.00
2022-10-03T07:15:18.225Z,676.00
2022-10-03T07:16:26.983Z,688.00
2022-10-03T07:17:20.343Z,680.00
2022-10-03T07:18:18.234Z,640.00
2022-10-03T07:19:18.200Z,644.00
2022-10-03T07:20:18.196Z,612.00
2022-10-03T07:21:18.192Z,600.00
2022-10-03T07:22:18.226Z,608.00
2022-10-03T07:23:18.203Z,652.00
2022-10-03T07:24:19.163Z,692.00
2022-10-03T07:25:18.189Z,756.00
2022-10-03T07:26:18.156Z,800.00
2022-10-03T07:27:18.179Z,832.00
2022-10-03T07:28:18.324Z,892.00
2022-10-03T07:29:18.363Z,948.00
2022-10-03T07:30:18.121Z,1000.00
2022-10-03T07:31:18.160Z,1052.00
2022-10-03T07:32:18.171Z,1036.00
2022-10-03T07:33:18.098Z,1044.00
2022-10-03T07:34:18.226Z,1092.00
2022-10-03T07:35:18.082Z,1080.00
2022-10-03T07:36:18.072Z,1032.00
2022-10-03T07:37:18.161Z,968.00
2022-10-03T07:38:18.072Z,936.00
2022-10-03T07:39:18.057Z,900.00
2022-10-03T07:40:18.046Z,860.00
2022-10-03T07:41:18.085Z,800.00
2022-10-03T07:42:18.052Z,812.00
2022-10-03T07:43:18.021Z,828.00
2022-10-03T07:44:18.024Z,852.00
2022-10-03T07:45:17.998Z,868.00
2022-10-03T07:46:18.090Z,880.00
2022-10-03T07:47:18.025Z,920.00
2022-10-03T07:48:17.982Z,976.00
2022-10-03T07:49:18.688Z,1088.00
2022-10-03T07:50:18.968Z,1160.00
2022-10-03T07:51:17.982Z,1232.00
2022-10-03T07:52:17.992Z,1260.00
2022-10-03T07:53:17.960Z,1332.00
2022-10-03T07:54:18.120Z,1308.00
2022-10-03T07:55:17.927Z,1244.00
2022-10-03T07:56:17.925Z,1248.00
2022-10-03T07:57:17.915Z,1256.00
2022-10-03T07:58:17.932Z,1276.00
2022-10-03T07:59:17.904Z,1292.00
2022-10-03T08:00:17.914Z,1280.00
2022-10-03T08:01:17.884Z,1292.00
2022-10-03T08:02:17.910Z,1280.00
2022-10-03T08:03:17.987Z,1340.00
2022-10-03T08:04:17.901Z,1328.00
2022-10-03T08:05:17.856Z,1312.00
2022-10-03T08:06:17.854Z,1296.00
2022-10-03T08:07:17.844Z,1256.00
2022-10-03T08:08:17.873Z,1232.00
2022-10-03T08:09:17.819Z,1280.00
2022-10-03T08:10:17.816Z,1352.00
2022-10-03T08:11:17.811Z,1360.00
2022-10-03T08:12:17.804Z,1412.00
2022-10-03T08:13:17.833Z,1352.00
2022-10-03T08:14:17.789Z,1300.00
2022-10-03T08:15:17.777Z,1276.00
2022-10-03T08:16:17.828Z,1248.00
2022-10-03T08:17:17.822Z,1168.00
2022-10-03T08:18:17.777Z,1068.00
2022-10-03T08:19:17.752Z,1000.00
2022-10-03T08:20:17.768Z,940.00
2022-10-03T08:21:17.737Z,948.00
2022-10-03T08:22:17.723Z,980.00
2022-10-03T08:23:17.749Z,952.00
2022-10-03T08:24:17.708Z,968.00
2022-10-03T08:25:17.697Z,952.00
2022-10-03T08:26:17.680Z,948.00
2022-10-03T08:27:18.689Z,1028.00
2022-10-03T08:28:17.743Z,1080.00
2022-10-03T08:29:18.665Z,1068.00
2022-10-03T08:30:17.666Z,1052.00
2022-10-03T08:31:17.678Z,1076.00
2022-10-03T08:32:17.645Z,1184.00
2022-10-03T08:33:17.675Z,1284.00
2022-10-03T08:34:17.631Z,1404.00
2022-10-03T08:35:17.653Z,1448.00
2022-10-03T08:36:17.617Z,1512.00
2022-10-03T08:37:17.619Z,1596.00
2022-10-03T08:38:17.658Z,1664.00
2022-10-03T08:39:17.600Z,1664.00
2022-10-03T08:40:17.587Z,1608.00
2022-10-03T08:41:17.595Z,1532.00
2022-10-03T08:42:17.645Z,1420.00
2022-10-03T08:43:17.677Z,1336.00
2022-10-03T08:44:17.574Z,1252.00
2022-10-03T08:45:17.552Z,1208.00
2022-10-03T08:46:17.715Z,1160.00
2022-10-03T08:47:18.407Z,1156.00
2022-10-03T08:48:17.575Z,1184.00
2022-10-03T08:49:17.563Z,1144.00
2022-10-03T08:50:17.523Z,1044.00
2022-10-03T08:51:17.538Z,976.00
2022-10-03T08:52:17.555Z,1000.00
2022-10-03T08:53:17.672Z,1016.00
2022-10-03T08:54:17.501Z,1036.00
2022-10-03T08:55:17.496Z,1052.00
2022-10-03T08:56:17.506Z,1016.00
2022-10-03T08:57:17.469Z,980.00
2022-10-03T08:58:17.492Z,928.00
2022-10-03T08:59:17.446Z,904.00
2022-10-03T09:00:17.503Z,900.00
2022-10-03T09:01:17.518Z,924.00
2022-10-03T09:02:17.582Z,920.00
2022-10-03T09:03:36.791Z,976.00
2022-10-03T09:04:19.430Z,1040.00
2022-10-03T09:05:17.424Z,1064.00
2022-10-03T09:06:17.416Z,1064.00
2022-10-03T09:07:18.698Z,1012.00
2022-10-03T09:08:18.537Z,956.00
2022-10-03T09:09:17.573Z,908.00
2022-10-03T09:10:17.416Z,900.00
2022-10-03T09:11:17.457Z,944.00
2022-10-03T09:12:17.371Z,1028.00
2022-10-03T09:13:17.446Z,1100.00
2022-10-03T09:14:17.371Z,1216.00
2022-10-03T09:15:17.389Z,1308.00
2022-10-03T09:16:18.651Z,1360.00
2022-10-03T09:17:18.337Z,1392.00
2022-10-03T09:18:17.357Z,1736.00
2022-10-03T09:19:17.391Z,1336.00
2022-10-03T09:20:17.460Z,1308.00
2022-10-03T09:21:17.319Z,1292.00
2022-10-03T09:22:17.319Z,1260.00
2022-10-03T09:23:17.329Z,1144.00
2022-10-03T09:24:17.360Z,1072.00
2022-10-03T09:25:17.273Z,1068.00
2022-10-03T09:26:17.300Z,1088.00
2022-10-03T09:27:17.272Z,1132.00
2022-10-03T09:28:19.179Z,1216.00
2022-10-03T09:29:17.254Z,1340.00
2022-10-03T09:30:17.394Z,1456.00
2022-10-03T09:31:17.298Z,1488.00
2022-10-03T09:32:17.332Z,1488.00
2022-10-03T09:33:17.266Z,1440.00
2022-10-03T09:34:17.210Z,1368.00
2022-10-03T09:35:17.202Z,1208.00
2022-10-03T09:36:17.235Z,1072.00
2022-10-03T09:37:17.294Z,936.00
2022-10-03T09:38:17.209Z,840.00
2022-10-03T09:39:17.361Z,744.00
2022-10-03T09:40:17.416Z,676.00
2022-10-03T09:41:18.156Z,616.00
2022-10-03T09:42:17.265Z,572.00
2022-10-03T09:43:17.212Z,568.00
2022-10-03T09:44:17.118Z,612.00
2022-10-03T09:45:17.162Z,624.00
2022-10-03T09:46:17.174Z,640.00
2022-10-03T09:47:17.087Z,672.00
2022-10-03T09:48:17.130Z,700.00
2022-10-03T09:49:17.067Z,760.00
2022-10-03T09:50:17.238Z,816.00
2022-10-03T09:51:17.060Z,852.00
2022-10-03T09:52:17.050Z,844.00
2022-10-03T09:53:17.078Z,852.00
2022-10-03T09:54:17.035Z,884.00
2022-10-03T09:55:17.037Z,948.00
2022-10-03T09:56:17.075Z,992.00
2022-10-03T09:57:29.553Z,1064.00
2022-10-03T09:58:16.993Z,1128.00
2022-10-03T09:59:17.017Z,1144.00
2022-10-03T10:00:17.067Z,1144.00
2022-10-03T10:01:17.031Z,1148.00
2022-10-03T10:02:16.965Z,1200.00
2022-10-03T10:03:16.962Z,1260.00
2022-10-03T10:04:22.097Z,1312.00
2022-10-03T10:05:17.935Z,1304.00
2022-10-03T10:06:17.377Z,1288.00
2022-10-03T10:07:16.919Z,1272.00
2022-10-03T10:08:16.921Z,1260.00
2022-10-03T10:09:16.939Z,1208.00
2022-10-03T10:10:16.986Z,1128.00
2022-10-03T10:11:16.895Z,1088.00
2022-10-03T10:12:16.895Z,1028.00
2022-10-03T10:13:16.879Z,972.00
2022-10-03T10:14:16.952Z,936.00
2022-10-03T10:15:16.886Z,956.00
2022-10-03T10:16:16.884Z,976.00
2022-10-03T10:17:16.862Z,1012.00
2022-10-03T10:18:16.849Z,1120.00
2022-10-03T10:19:16.869Z,1188.00
2022-10-03T10:20:16.834Z,1276.00
2022-10-03T10:21:16.824Z,1344.00
2022-10-03T10:22:16.817Z,1380.00
2022-10-03T10:23:16.813Z,1420.00
2022-10-03T10:24:16.832Z,1516.00
2022-10-03T10:25:16.806Z,1524.00
2022-10-03T10:26:16.792Z,1520.00
2022-10-03T10:27:16.791Z,1476.00
2022-10-03T10:28:16.837Z,1388.00
2022-10-03T10:29:16.793Z,1300.00
2022-10-03T10:30:16.756Z,1220.00
2022-10-03T10:31:16.814Z,1152.00
2022-10-03T10:32:21.386Z,1128.00
2022-10-03T10:33:18.739Z,1108.00
2022-10-03T10:34:16.756Z,1124.00
2022-10-03T10:35:16.721Z,1156.00
2022-10-03T10:36:16.714Z,1164.00
2022-10-03T10:37:16.704Z,1136.00
2022-10-03T10:38:16.694Z,1100.00
2022-10-03T10:39:17.051Z,1088.00
2022-10-03T10:40:16.688Z,1084.00
2022-10-03T10:41:16.674Z,1084.00
2022-10-03T10:42:16.671Z,1092.00
2022-10-03T10:43:16.652Z,1076.00
2022-10-03T10:44:16.681Z,1064.00
2022-10-03T10:45:16.649Z,1076.00
2022-10-03T10:46:16.692Z,1084.00
2022-10-03T10:47:16.623Z,1100.00
2022-10-03T10:48:16.625Z,1128.00
2022-10-03T10:49:16.610Z,1180.00
2022-10-03T10:50:16.640Z,1260.00
2022-10-03T10:51:16.595Z,1320.00
2022-10-03T10:52:16.590Z,1396.00
2022-10-03T10:53:16.601Z,1440.00
2022-10-03T10:54:16.600Z,1464.00
2022-10-03T10:55:16.572Z,1496.00
2022-10-03T10:56:16.553Z,1532.00
2022-10-03T10:57:16.552Z,1560.00
2022-10-03T10:58:16.541Z,1592.00
2022-10-03T10:59:16.558Z,1688.00
2022-10-03T11:00:16.542Z,1892.00
2022-10-03T11:01:16.561Z,3128.00
2022-10-03T11:02:16.513Z,1784.00
2022-10-03T11:03:16.501Z,1604.00
2022-10-03T11:04:16.563Z,1512.00
2022-10-03T11:05:16.492Z,1464.00
2022-10-03T11:06:16.481Z,1440.00
2022-10-03T11:07:16.476Z,1428.00
2022-10-03T11:08:16.463Z,1416.00
2022-10-03T11:09:16.492Z,1416.00
2022-10-03T11:10:16.452Z,1416.00
2022-10-03T11:11:16.453Z,1460.00
2022-10-03T11:12:16.437Z,1468.00
2022-10-03T11:13:16.432Z,1492.00
2022-10-03T11:14:16.419Z,1532.00
2022-10-03T11:15:16.442Z,1564.00
2022-10-03T11:16:16.482Z,1628.00
2022-10-03T11:17:16.396Z,1616.00
2022-10-03T11:18:16.422Z,1664.00
2022-10-03T11:19:16.383Z,1752.00
2022-10-03T11:20:16.408Z,1800.00
2022-10-03T11:21:16.369Z,1892.00
2022-10-03T11:22:16.359Z,1828.00
2022-10-03T11:23:16.353Z,1780.00
2022-10-03T11:24:16.349Z,1788.00
2022-10-03T11:25:16.361Z,1784.00
2022-10-03T11:26:16.324Z,1700.00
2022-10-03T11:27:16.321Z,1648.00
2022-10-03T11:28:18.881Z,1560.00
2022-10-03T11:29:17.307Z,1536.00
2022-10-03T11:30:16.334Z,1540.00
2022-10-03T11:31:16.318Z,1544.00
2022-10-03T11:32:16.279Z,1540.00
2022-10-03T11:33:16.270Z,1524.00
2022-10-03T11:34:16.258Z,1492.00
2022-10-03T11:35:16.297Z,1536.00
2022-10-03T11:36:16.246Z,1592.00
2022-10-03T11:37:16.242Z,1604.00
2022-10-03T11:38:16.285Z,1596.00
2022-10-03T11:39:16.225Z,1564.00
2022-10-03T11:40:16.246Z,1512.00
2022-10-03T11:41:16.237Z,1536.00
2022-10-03T11:42:16.200Z,1516.00
2022-10-03T11:43:16.207Z,1436.00
2022-10-03T11:44:16.215Z,1412.00
2022-10-03T11:45:16.174Z,1424.00
2022-10-03T11:46:16.249Z,1388.00
2022-10-03T11:47:16.158Z,1404.00
2022-10-03T11:48:16.148Z,1436.00
2022-10-03T11:49:16.164Z,1460.00
2022-10-03T11:50:16.137Z,1492.00
2022-10-03T11:51:16.122Z,1464.00
2022-10-03T11:52:16.116Z,1460.00
2022-10-03T11:53:16.117Z,1468.00
2022-10-03T11:54:30.415Z,1496.00
2022-10-03T11:55:18.097Z,1528.00
2022-10-03T11:56:16.083Z,1680.00
2022-10-03T11:57:16.084Z,1600.00
2022-10-03T11:58:16.070Z,1740.00
2022-10-03T11:59:16.063Z,1576.00
2022-10-03T12:00:16.083Z,1532.00
2022-10-03T12:01:16.049Z,1540.00
2022-10-03T12:02:16.103Z,1516.00
2022-10-03T12:03:16.116Z,1476.00
2022-10-03T12:04:16.099Z,1432.00
2022-10-03T12:05:16.042Z,1384.00
2022-10-03T12:06:16.015Z,1380.00
2022-10-03T12:07:17.622Z,1348.00
2022-10-03T12:08:17.018Z,1332.00
2022-10-03T12:09:15.989Z,1340.00
2022-10-03T12:10:16.011Z,1340.00
2022-10-03T12:11:15.972Z,1348.00
2022-10-03T12:12:15.969Z,1364.00
2022-10-03T12:13:15.955Z,1372.00
2022-10-03T12:14:15.953Z,1400.00
2022-10-03T12:15:15.967Z,1416.00
2022-10-03T12:16:16.015Z,1408.00
2022-10-03T12:17:15.964Z,1420.00
2022-10-03T12:18:15.925Z,1384.00
2022-10-03T12:19:15.916Z,1364.00
2022-10-03T12:20:15.931Z,1412.00
2022-10-03T12:21:19.741Z,1428.00
2022-10-03T12:22:17.904Z,1300.00
2022-10-03T12:23:15.883Z,1292.00
2022-10-03T12:24:15.873Z,1296.00
2022-10-03T12:25:15.888Z,1300.00
2022-10-03T12:26:15.863Z,1312.00
2022-10-03T12:27:15.855Z,1336.00
2022-10-03T12:28:15.919Z,1344.00
2022-10-03T12:29:15.847Z,1344.00
2022-10-03T12:30:15.856Z,1348.00
2022-10-03T12:31:18.957Z,1360.00
2022-10-03T12:32:16.883Z,1380.00
2022-10-03T12:33:15.802Z,1408.00
2022-10-03T12:34:15.805Z,2360.00
2022-10-03T12:35:15.821Z,1580.00
2022-10-03T12:36:15.784Z,1480.00
2022-10-03T12:37:15.775Z,2052.00
2022-10-03T12:38:15.768Z,1488.00
2022-10-03T12:39:15.879Z,1356.00
2022-10-03T12:40:15.785Z,1364.00
2022-10-03T12:41:15.751Z,1384.00